sensor_id;sensor_type;location;lat;lon;timestamp;temperature;humidity
21171;DHT22;10743;52.160;20.910;2023-05-06T00:01:21;25.20;30.80
21171;DHT22;10743;52.160;20.910;2023-05-06T00:03:49;25.10;30.80
21171;DHT22;10743;52.160;20.910;2023-05-06T00:06:16;25.10;30.80
21171;DHT22;10743;52.160;20.910;2023-05-06T00:08:43;25.10;30.90
21171;DHT22;10743;52.160;20.910;2023-05-06T00:11:11;25.00;30.80
21171;DHT22;10743;52.160;20.910;2023-05-06T00:13:40;25.00;30.80
21171;DHT22;10743;52.160;20.910;2023-05-06T00:16:07;25.00;30.90
21171;DHT22;10743;52.160;20.910;2023-05-06T00:18:34;24.90;30.80
21171;DHT22;10743;52.160;20.910;2023-05-06T00:21:01;24.90;30.80
21171;DHT22;10743;52.160;20.910;2023-05-06T00:23:28;24.90;30.80
21171;DHT22;10743;52.160;20.910;2023-05-06T00:25:55;24.80;30.70
21171;DHT22;10743;52.160;20.910;2023-05-06T00:28:22;24.80;30.70
21171;DHT22;10743;52.160;20.910;2023-05-06T00:30:49;24.80;30.80
21171;DHT22;10743;52.160;20.910;2023-05-06T00:33:17;24.70;30.80
21171;DHT22;10743;52.160;20.910;2023-05-06T00:35:44;24.70;30.80
21171;DHT22;10743;52.160;20.910;2023-05-06T00:38:12;24.70;30.80
21171;DHT22;10743;52.160;20.910;2023-05-06T00:40:41;24.60;30.80
21171;DHT22;10743;52.160;20.910;2023-05-06T00:43:09;24.60;30.70
21171;DHT22;10743;52.160;20.910;2023-05-06T00:45:36;24.60;30.70
21171;DHT22;10743;52.160;20.910;2023-05-06T00:48:04;24.60;30.70
21171;DHT22;10743;52.160;20.910;2023-05-06T00:50:33;24.60;30.70
21171;DHT22;10743;52.160;20.910;2023-05-06T00:53:02;24.50;30.50
21171;DHT22;10743;52.160;20.910;2023-05-06T00:55:30;24.50;30.40
21171;DHT22;10743;52.160;20.910;2023-05-06T00:57:57;24.50;30.40
21171;DHT22;10743;52.160;20.910;2023-05-06T01:00:24;24.50;30.20
21171;DHT22;10743;52.160;20.910;2023-05-06T01:02:52;24.50;30.20
21171;DHT22;10743;52.160;20.910;2023-05-06T01:05:21;24.40;30.00
21171;DHT22;10743;52.160;20.910;2023-05-06T01:08:29;24.40;30.00
21171;DHT22;10743;52.160;20.910;2023-05-06T01:11:12;24.40;30.00
21171;DHT22;10743;52.160;20.910;2023-05-06T01:13:47;24.30;29.90
21171;DHT22;10743;52.160;20.910;2023-05-06T01:16:22;24.40;29.70
21171;DHT22;10743;52.160;20.910;2023-05-06T01:18:51;24.30;29.60
21171;DHT22;10743;52.160;20.910;2023-05-06T01:21:20;24.30;29.70
21171;DHT22;10743;52.160;20.910;2023-05-06T01:23:56;24.20;29.60
21171;DHT22;10743;52.160;20.910;2023-05-06T01:26:24;24.20;29.50
21171;DHT22;10743;52.160;20.910;2023-05-06T01:28:52;24.20;29.50
21171;DHT22;10743;52.160;20.910;2023-05-06T01:34:09;24.20;29.50
21171;DHT22;10743;52.160;20.910;2023-05-06T01:37:09;24.20;29.40
21171;DHT22;10743;52.160;20.910;2023-05-06T01:39:41;24.10;29.30
21171;DHT22;10743;52.160;20.910;2023-05-06T01:42:09;24.10;29.50
21171;DHT22;10743;52.160;20.910;2023-05-06T01:44:38;24.10;29.40
21171;DHT22;10743;52.160;20.910;2023-05-06T01:47:08;24.10;29.40
21171;DHT22;10743;52.160;20.910;2023-05-06T01:49:36;24.10;29.30
21171;DHT22;10743;52.160;20.910;2023-05-06T01:52:03;24.10;29.20
21171;DHT22;10743;52.160;20.910;2023-05-06T01:54:31;24.00;29.10
21171;DHT22;10743;52.160;20.910;2023-05-06T01:57:00;24.00;29.10
21171;DHT22;10743;52.160;20.910;2023-05-06T01:59:27;24.00;29.10
21171;DHT22;10743;52.160;20.910;2023-05-06T02:01:55;24.00;29.20
21171;DHT22;10743;52.160;20.910;2023-05-06T02:04:22;24.00;29.10
21171;DHT22;10743;52.160;20.910;2023-05-06T02:06:49;23.90;29.10
21171;DHT22;10743;52.160;20.910;2023-05-06T02:09:18;23.90;29.00
21171;DHT22;10743;52.160;20.910;2023-05-06T02:11:51;23.80;29.00
21171;DHT22;10743;52.160;20.910;2023-05-06T02:14:18;23.80;29.10
21171;DHT22;10743;52.160;20.910;2023-05-06T02:16:45;23.80;29.20
21171;DHT22;10743;52.160;20.910;2023-05-06T02:19:13;23.70;29.10
21171;DHT22;10743;52.160;20.910;2023-05-06T02:21:41;23.70;29.00
21171;DHT22;10743;52.160;20.910;2023-05-06T02:24:08;23.70;29.10
21171;DHT22;10743;52.160;20.910;2023-05-06T02:26:35;23.70;29.00
21171;DHT22;10743;52.160;20.910;2023-05-06T02:29:03;23.70;29.10
21171;DHT22;10743;52.160;20.910;2023-05-06T02:31:30;23.70;29.00
21171;DHT22;10743;52.160;20.910;2023-05-06T02:33:57;23.60;29.10
21171;DHT22;10743;52.160;20.910;2023-05-06T02:36:24;23.60;29.10
21171;DHT22;10743;52.160;20.910;2023-05-06T02:38:53;23.60;29.10
21171;DHT22;10743;52.160;20.910;2023-05-06T02:41:20;23.60;29.00
21171;DHT22;10743;52.160;20.910;2023-05-06T02:43:47;23.60;29.00
21171;DHT22;10743;52.160;20.910;2023-05-06T02:46:14;23.60;29.00
21171;DHT22;10743;52.160;20.910;2023-05-06T02:48:41;23.50;29.50
21171;DHT22;10743;52.160;20.910;2023-05-06T02:51:09;23.50;29.00
21171;DHT22;10743;52.160;20.910;2023-05-06T02:53:36;23.50;29.00
21171;DHT22;10743;52.160;20.910;2023-05-06T02:56:03;23.50;29.00
21171;DHT22;10743;52.160;20.910;2023-05-06T02:58:31;23.40;29.00
21171;DHT22;10743;52.160;20.910;2023-05-06T03:00:58;23.40;29.00
21171;DHT22;10743;52.160;20.910;2023-05-06T03:03:25;23.40;29.00
21171;DHT22;10743;52.160;20.910;2023-05-06T03:05:52;23.40;29.00
21171;DHT22;10743;52.160;20.910;2023-05-06T03:08:19;23.40;29.10
21171;DHT22;10743;52.160;20.910;2023-05-06T03:10:46;23.30;29.10
21171;DHT22;10743;52.160;20.910;2023-05-06T03:13:16;23.30;29.20
21171;DHT22;10743;52.160;20.910;2023-05-06T03:15:44;23.30;29.10
21171;DHT22;10743;52.160;20.910;2023-05-06T03:18:11;23.30;29.20
21171;DHT22;10743;52.160;20.910;2023-05-06T03:20:38;23.20;29.30
21171;DHT22;10743;52.160;20.910;2023-05-06T03:23:05;23.20;29.30
21171;DHT22;10743;52.160;20.910;2023-05-06T03:25:33;23.20;29.40
21171;DHT22;10743;52.160;20.910;2023-05-06T03:28:00;23.20;29.40
21171;DHT22;10743;52.160;20.910;2023-05-06T03:30:29;23.20;29.40
21171;DHT22;10743;52.160;20.910;2023-05-06T03:33:00;23.20;29.50
21171;DHT22;10743;52.160;20.910;2023-05-06T03:35:30;23.20;29.60
21171;DHT22;10743;52.160;20.910;2023-05-06T03:37:59;23.20;29.60
21171;DHT22;10743;52.160;20.910;2023-05-06T03:40:33;23.20;29.70
21171;DHT22;10743;52.160;20.910;2023-05-06T03:43:01;23.20;29.70
21171;DHT22;10743;52.160;20.910;2023-05-06T03:45:28;23.20;29.50
21171;DHT22;10743;52.160;20.910;2023-05-06T03:47:58;23.20;29.10
21171;DHT22;10743;52.160;20.910;2023-05-06T03:50:26;23.20;29.60
21171;DHT22;10743;52.160;20.910;2023-05-06T03:52:53;23.20;29.60
21171;DHT22;10743;52.160;20.910;2023-05-06T03:55:22;23.20;29.70
21171;DHT22;10743;52.160;20.910;2023-05-06T03:57:50;23.20;29.60
21171;DHT22;10743;52.160;20.910;2023-05-06T04:00:19;23.20;29.70
21171;DHT22;10743;52.160;20.910;2023-05-06T04:02:51;23.20;29.80
21171;DHT22;10743;52.160;20.910;2023-05-06T04:05:28;23.20;29.80
21171;DHT22;10743;52.160;20.910;2023-05-06T04:07:56;23.20;29.80
21171;DHT22;10743;52.160;20.910;2023-05-06T04:10:23;23.20;29.90
21171;DHT22;10743;52.160;20.910;2023-05-06T04:12:53;23.20;29.80
21171;DHT22;10743;52.160;20.910;2023-05-06T04:15:25;23.20;29.80
21171;DHT22;10743;52.160;20.910;2023-05-06T04:17:54;23.20;29.80
21171;DHT22;10743;52.160;20.910;2023-05-06T04:20:21;23.20;29.90
21171;DHT22;10743;52.160;20.910;2023-05-06T04:22:48;23.20;29.80
21171;DHT22;10743;52.160;20.910;2023-05-06T04:25:16;23.20;29.80
21171;DHT22;10743;52.160;20.910;2023-05-06T04:27:45;23.20;29.80
21171;DHT22;10743;52.160;20.910;2023-05-06T04:30:12;23.20;29.90
21171;DHT22;10743;52.160;20.910;2023-05-06T04:32:40;23.10;29.90
21171;DHT22;10743;52.160;20.910;2023-05-06T04:35:07;23.20;30.00
21171;DHT22;10743;52.160;20.910;2023-05-06T04:37:37;23.10;30.00
21171;DHT22;10743;52.160;20.910;2023-05-06T04:40:10;23.10;30.00
21171;DHT22;10743;52.160;20.910;2023-05-06T04:42:41;23.20;30.00
21171;DHT22;10743;52.160;20.910;2023-05-06T04:45:15;23.20;30.00
21171;DHT22;10743;52.160;20.910;2023-05-06T04:47:45;23.20;30.20
21171;DHT22;10743;52.160;20.910;2023-05-06T04:50:14;23.20;30.20
21171;DHT22;10743;52.160;20.910;2023-05-06T04:52:41;23.20;30.20
21171;DHT22;10743;52.160;20.910;2023-05-06T04:55:09;23.20;30.20
21171;DHT22;10743;52.160;20.910;2023-05-06T04:57:41;23.20;30.20
21171;DHT22;10743;52.160;20.910;2023-05-06T05:00:08;23.20;30.30
21171;DHT22;10743;52.160;20.910;2023-05-06T05:02:36;23.20;30.30
21171;DHT22;10743;52.160;20.910;2023-05-06T05:05:04;23.20;30.30
21171;DHT22;10743;52.160;20.910;2023-05-06T05:07:33;23.20;30.30
21171;DHT22;10743;52.160;20.910;2023-05-06T05:10:00;23.20;30.20
21171;DHT22;10743;52.160;20.910;2023-05-06T05:12:28;23.20;30.20
21171;DHT22;10743;52.160;20.910;2023-05-06T05:14:56;23.20;30.30
21171;DHT22;10743;52.160;20.910;2023-05-06T05:17:23;23.20;30.50
21171;DHT22;10743;52.160;20.910;2023-05-06T05:19:51;23.20;30.50
21171;DHT22;10743;52.160;20.910;2023-05-06T05:22:18;23.20;30.50
21171;DHT22;10743;52.160;20.910;2023-05-06T05:24:45;23.30;30.70
21171;DHT22;10743;52.160;20.910;2023-05-06T05:27:12;23.20;30.70
21171;DHT22;10743;52.160;20.910;2023-05-06T05:29:40;23.30;30.90
21171;DHT22;10743;52.160;20.910;2023-05-06T05:32:08;23.30;31.10
21171;DHT22;10743;52.160;20.910;2023-05-06T05:34:35;23.30;31.20
21171;DHT22;10743;52.160;20.910;2023-05-06T05:37:02;23.40;31.20
21171;DHT22;10743;52.160;20.910;2023-05-06T05:39:30;23.40;31.50
21171;DHT22;10743;52.160;20.910;2023-05-06T05:41:57;23.40;31.40
21171;DHT22;10743;52.160;20.910;2023-05-06T05:44:24;23.40;31.40
21171;DHT22;10743;52.160;20.910;2023-05-06T05:46:52;23.40;31.40
21171;DHT22;10743;52.160;20.910;2023-05-06T05:49:20;23.50;31.50
21171;DHT22;10743;52.160;20.910;2023-05-06T05:51:49;23.50;31.40
21171;DHT22;10743;52.160;20.910;2023-05-06T05:54:18;23.50;31.40
21171;DHT22;10743;52.160;20.910;2023-05-06T05:56:45;23.50;31.30
21171;DHT22;10743;52.160;20.910;2023-05-06T05:59:13;23.60;31.50
21171;DHT22;10743;52.160;20.910;2023-05-06T06:01:41;23.60;31.30
21171;DHT22;10743;52.160;20.910;2023-05-06T06:04:09;23.60;31.30
21171;DHT22;10743;52.160;20.910;2023-05-06T06:06:36;23.60;31.40
21171;DHT22;10743;52.160;20.910;2023-05-06T06:09:04;23.60;31.50
21171;DHT22;10743;52.160;20.910;2023-05-06T06:11:31;23.70;31.60
21171;DHT22;10743;52.160;20.910;2023-05-06T06:13:58;23.70;31.70
21171;DHT22;10743;52.160;20.910;2023-05-06T06:16:26;23.70;31.10
21171;DHT22;10743;52.160;20.910;2023-05-06T06:18:53;23.80;31.70
21171;DHT22;10743;52.160;20.910;2023-05-06T06:21:20;23.80;30.90
21171;DHT22;10743;52.160;20.910;2023-05-06T06:23:47;23.80;30.70
21171;DHT22;10743;52.160;20.910;2023-05-06T06:26:14;23.90;30.70
21171;DHT22;10743;52.160;20.910;2023-05-06T06:28:41;23.90;30.70
21171;DHT22;10743;52.160;20.910;2023-05-06T06:31:10;23.90;31.00
21171;DHT22;10743;52.160;20.910;2023-05-06T06:33:37;24.00;30.80
21171;DHT22;10743;52.160;20.910;2023-05-06T06:36:05;24.00;30.80
21171;DHT22;10743;52.160;20.910;2023-05-06T06:38:32;24.10;30.50
21171;DHT22;10743;52.160;20.910;2023-05-06T06:40:59;24.10;30.30
21171;DHT22;10743;52.160;20.910;2023-05-06T06:43:26;24.10;30.20
21171;DHT22;10743;52.160;20.910;2023-05-06T06:46:00;24.20;30.20
21171;DHT22;10743;52.160;20.910;2023-05-06T06:48:27;24.20;30.20
21171;DHT22;10743;52.160;20.910;2023-05-06T06:50:54;24.30;30.00
21171;DHT22;10743;52.160;20.910;2023-05-06T06:53:22;24.30;30.00
21171;DHT22;10743;52.160;20.910;2023-05-06T06:55:49;24.30;30.30
21171;DHT22;10743;52.160;20.910;2023-05-06T06:58:16;24.30;30.50
21171;DHT22;10743;52.160;20.910;2023-05-06T07:00:43;24.30;30.70
21171;DHT22;10743;52.160;20.910;2023-05-06T07:03:11;24.30;30.50
21171;DHT22;10743;52.160;20.910;2023-05-06T07:05:41;24.40;30.30
21171;DHT22;10743;52.160;20.910;2023-05-06T07:08:08;24.40;30.40
21171;DHT22;10743;52.160;20.910;2023-05-06T07:10:35;24.40;30.10
21171;DHT22;10743;52.160;20.910;2023-05-06T07:13:03;24.50;29.80
21171;DHT22;10743;52.160;20.910;2023-05-06T07:15:30;24.50;30.00
21171;DHT22;10743;52.160;20.910;2023-05-06T07:17:57;24.50;29.90
21171;DHT22;10743;52.160;20.910;2023-05-06T07:20:24;24.60;30.00
21171;DHT22;10743;52.160;20.910;2023-05-06T07:22:51;24.60;30.10
21171;DHT22;10743;52.160;20.910;2023-05-06T07:25:18;24.60;30.00
21171;DHT22;10743;52.160;20.910;2023-05-06T07:27:45;24.70;30.00
21171;DHT22;10743;52.160;20.910;2023-05-06T07:30:12;24.70;29.70
21171;DHT22;10743;52.160;20.910;2023-05-06T07:32:39;24.70;29.50
21171;DHT22;10743;52.160;20.910;2023-05-06T07:35:07;24.70;29.30
21171;DHT22;10743;52.160;20.910;2023-05-06T07:37:35;24.80;29.40
21171;DHT22;10743;52.160;20.910;2023-05-06T07:40:02;24.80;29.40
21171;DHT22;10743;52.160;20.910;2023-05-06T07:42:29;24.80;29.20
21171;DHT22;10743;52.160;20.910;2023-05-06T07:44:56;24.80;29.00
21171;DHT22;10743;52.160;20.910;2023-05-06T07:47:28;24.90;29.00
21171;DHT22;10743;52.160;20.910;2023-05-06T07:49:57;24.90;28.80
21171;DHT22;10743;52.160;20.910;2023-05-06T07:52:26;25.00;28.90
21171;DHT22;10743;52.160;20.910;2023-05-06T07:54:53;25.00;29.00
21171;DHT22;10743;52.160;20.910;2023-05-06T07:57:20;25.00;28.90
21171;DHT22;10743;52.160;20.910;2023-05-06T07:59:49;25.00;28.70
21171;DHT22;10743;52.160;20.910;2023-05-06T08:02:17;25.00;28.60
21171;DHT22;10743;52.160;20.910;2023-05-06T08:04:44;25.10;28.80
21171;DHT22;10743;52.160;20.910;2023-05-06T08:07:12;25.10;28.70
21171;DHT22;10743;52.160;20.910;2023-05-06T08:09:40;25.20;28.60
21171;DHT22;10743;52.160;20.910;2023-05-06T08:12:07;25.10;28.60
21171;DHT22;10743;52.160;20.910;2023-05-06T08:14:35;25.20;28.40
21171;DHT22;10743;52.160;20.910;2023-05-06T08:17:02;25.20;28.30
21171;DHT22;10743;52.160;20.910;2023-05-06T08:19:29;25.20;28.20
21171;DHT22;10743;52.160;20.910;2023-05-06T08:21:56;25.20;28.20
21171;DHT22;10743;52.160;20.910;2023-05-06T08:24:23;25.20;28.20
21171;DHT22;10743;52.160;20.910;2023-05-06T08:26:50;25.20;28.00
21171;DHT22;10743;52.160;20.910;2023-05-06T08:29:17;25.30;28.00
21171;DHT22;10743;52.160;20.910;2023-05-06T08:31:45;25.30;27.90
21171;DHT22;10743;52.160;20.910;2023-05-06T08:34:12;25.30;27.70
21171;DHT22;10743;52.160;20.910;2023-05-06T08:36:39;25.40;27.70
21171;DHT22;10743;52.160;20.910;2023-05-06T08:39:06;25.40;27.60
21171;DHT22;10743;52.160;20.910;2023-05-06T08:41:34;25.40;27.80
21171;DHT22;10743;52.160;20.910;2023-05-06T08:44:04;25.40;28.10
21171;DHT22;10743;52.160;20.910;2023-05-06T08:46:31;25.40;28.20
21171;DHT22;10743;52.160;20.910;2023-05-06T08:48:59;25.50;28.20
21171;DHT22;10743;52.160;20.910;2023-05-06T08:51:28;25.50;28.10
21171;DHT22;10743;52.160;20.910;2023-05-06T08:54:00;25.40;28.00
21171;DHT22;10743;52.160;20.910;2023-05-06T08:56:32;25.50;27.80
21171;DHT22;10743;52.160;20.910;2023-05-06T08:58:59;25.50;28.10
21171;DHT22;10743;52.160;20.910;2023-05-06T09:01:27;25.50;28.00
21171;DHT22;10743;52.160;20.910;2023-05-06T09:03:56;25.40;28.10
21171;DHT22;10743;52.160;20.910;2023-05-06T09:06:25;25.40;28.00
21171;DHT22;10743;52.160;20.910;2023-05-06T09:08:52;25.40;27.80
21171;DHT22;10743;52.160;20.910;2023-05-06T09:11:24;25.40;27.80
21171;DHT22;10743;52.160;20.910;2023-05-06T09:14:26;25.40;27.90
21171;DHT22;10743;52.160;20.910;2023-05-06T09:16:53;25.40;27.90
21171;DHT22;10743;52.160;20.910;2023-05-06T09:19:21;25.40;27.90
21171;DHT22;10743;52.160;20.910;2023-05-06T09:21:49;25.50;27.80
21171;DHT22;10743;52.160;20.910;2023-05-06T09:24:17;25.50;27.90
21171;DHT22;10743;52.160;20.910;2023-05-06T09:26:44;25.50;28.10
21171;DHT22;10743;52.160;20.910;2023-05-06T09:29:12;25.50;28.60
21171;DHT22;10743;52.160;20.910;2023-05-06T09:31:43;25.60;28.90
21171;DHT22;10743;52.160;20.910;2023-05-06T09:34:12;25.60;29.00
21171;DHT22;10743;52.160;20.910;2023-05-06T09:36:40;25.70;29.00
21171;DHT22;10743;52.160;20.910;2023-05-06T09:39:07;25.70;29.50
21171;DHT22;10743;52.160;20.910;2023-05-06T09:41:35;25.60;29.30
21171;DHT22;10743;52.160;20.910;2023-05-06T09:44:02;25.60;29.20
21171;DHT22;10743;52.160;20.910;2023-05-06T09:46:29;25.60;29.30
21171;DHT22;10743;52.160;20.910;2023-05-06T09:48:57;25.60;29.20
21171;DHT22;10743;52.160;20.910;2023-05-06T09:51:25;25.60;29.20
21171;DHT22;10743;52.160;20.910;2023-05-06T09:53:55;25.60;29.20
21171;DHT22;10743;52.160;20.910;2023-05-06T09:56:24;25.60;29.00
21171;DHT22;10743;52.160;20.910;2023-05-06T09:58:53;25.60;29.20
21171;DHT22;10743;52.160;20.910;2023-05-06T10:01:22;25.60;28.90
21171;DHT22;10743;52.160;20.910;2023-05-06T10:04:07;25.60;28.90
21171;DHT22;10743;52.160;20.910;2023-05-06T10:06:39;25.60;28.90
21171;DHT22;10743;52.160;20.910;2023-05-06T10:09:07;25.60;29.00
21171;DHT22;10743;52.160;20.910;2023-05-06T10:11:35;25.60;28.70
21171;DHT22;10743;52.160;20.910;2023-05-06T10:14:03;25.60;28.50
21171;DHT22;10743;52.160;20.910;2023-05-06T10:16:32;25.60;28.60
21171;DHT22;10743;52.160;20.910;2023-05-06T10:19:02;25.60;28.80
21171;DHT22;10743;52.160;20.910;2023-05-06T10:21:31;25.60;28.60
21171;DHT22;10743;52.160;20.910;2023-05-06T10:24:05;25.60;28.70
21171;DHT22;10743;52.160;20.910;2023-05-06T10:26:35;25.60;28.90
21171;DHT22;10743;52.160;20.910;2023-05-06T10:29:08;25.60;28.90
21171;DHT22;10743;52.160;20.910;2023-05-06T10:31:39;25.60;28.80
21171;DHT22;10743;52.160;20.910;2023-05-06T10:34:10;25.60;28.50
21171;DHT22;10743;52.160;20.910;2023-05-06T10:36:38;25.70;28.50
21171;DHT22;10743;52.160;20.910;2023-05-06T10:39:08;25.60;28.50
21171;DHT22;10743;52.160;20.910;2023-05-06T10:41:36;25.60;28.40
21171;DHT22;10743;52.160;20.910;2023-05-06T10:44:03;25.60;28.40
21171;DHT22;10743;52.160;20.910;2023-05-06T10:46:31;25.70;28.60
21171;DHT22;10743;52.160;20.910;2023-05-06T10:49:23;25.60;28.50
21171;DHT22;10743;52.160;20.910;2023-05-06T10:52:09;25.60;28.70
21171;DHT22;10743;52.160;20.910;2023-05-06T10:54:51;25.60;28.60
21171;DHT22;10743;52.160;20.910;2023-05-06T10:57:18;25.60;28.60
21171;DHT22;10743;52.160;20.910;2023-05-06T10:59:47;25.70;28.70
21171;DHT22;10743;52.160;20.910;2023-05-06T11:02:18;25.70;28.40
21171;DHT22;10743;52.160;20.910;2023-05-06T11:04:59;25.60;28.40
21171;DHT22;10743;52.160;20.910;2023-05-06T11:07:27;25.60;28.40
21171;DHT22;10743;52.160;20.910;2023-05-06T11:09:58;25.60;28.20
21171;DHT22;10743;52.160;20.910;2023-05-06T11:12:51;25.60;28.30
21171;DHT22;10743;52.160;20.910;2023-05-06T11:15:27;25.60;28.00
21171;DHT22;10743;52.160;20.910;2023-05-06T11:26:15;25.60;28.40
21171;DHT22;10743;52.160;20.910;2023-05-06T11:28:49;25.60;28.50
21171;DHT22;10743;52.160;20.910;2023-05-06T11:31:17;25.60;28.80
21171;DHT22;10743;52.160;20.910;2023-05-06T11:33:49;25.60;29.10
21171;DHT22;10743;52.160;20.910;2023-05-06T11:36:19;25.60;28.90
21171;DHT22;10743;52.160;20.910;2023-05-06T11:38:50;25.50;29.10
21171;DHT22;10743;52.160;20.910;2023-05-06T11:41:22;25.50;29.10
21171;DHT22;10743;52.160;20.910;2023-05-06T11:43:51;25.50;29.00
21171;DHT22;10743;52.160;20.910;2023-05-06T11:46:20;25.40;29.20
21171;DHT22;10743;52.160;20.910;2023-05-06T11:48:48;25.40;29.30
21171;DHT22;10743;52.160;20.910;2023-05-06T11:51:21;25.40;29.40
21171;DHT22;10743;52.160;20.910;2023-05-06T11:53:48;25.40;29.80
21171;DHT22;10743;52.160;20.910;2023-05-06T11:56:15;25.40;29.90
21171;DHT22;10743;52.160;20.910;2023-05-06T11:58:42;25.30;30.10
21171;DHT22;10743;52.160;20.910;2023-05-06T12:01:09;25.20;30.50
21171;DHT22;10743;52.160;20.910;2023-05-06T12:03:36;25.20;30.60
21171;DHT22;10743;52.160;20.910;2023-05-06T12:06:03;25.20;30.60
21171;DHT22;10743;52.160;20.910;2023-05-06T12:08:32;25.20;30.60
21171;DHT22;10743;52.160;20.910;2023-05-06T12:11:06;25.10;30.70
21171;DHT22;10743;52.160;20.910;2023-05-06T12:13:34;25.10;31.10
21171;DHT22;10743;52.160;20.910;2023-05-06T12:16:03;25.10;31.50
21171;DHT22;10743;52.160;20.910;2023-05-06T12:18:31;25.00;32.00
21171;DHT22;10743;52.160;20.910;2023-05-06T12:21:00;25.00;32.00
21171;DHT22;10743;52.160;20.910;2023-05-06T12:23:32;25.00;32.30
21171;DHT22;10743;52.160;20.910;2023-05-06T12:26:03;25.00;32.70
21171;DHT22;10743;52.160;20.910;2023-05-06T12:28:33;24.90;32.30
21171;DHT22;10743;52.160;20.910;2023-05-06T12:31:21;24.90;32.30
21171;DHT22;10743;52.160;20.910;2023-05-06T12:33:49;24.80;33.20
21171;DHT22;10743;52.160;20.910;2023-05-06T12:36:18;24.80;33.10
21171;DHT22;10743;52.160;20.910;2023-05-06T12:38:52;24.80;33.50
21171;DHT22;10743;52.160;20.910;2023-05-06T12:41:43;24.80;33.50
21171;DHT22;10743;52.160;20.910;2023-05-06T12:44:34;24.80;33.30
21171;DHT22;10743;52.160;20.910;2023-05-06T12:47:05;24.70;33.80
21171;DHT22;10743;52.160;20.910;2023-05-06T12:49:54;24.70;34.20
21171;DHT22;10743;52.160;20.910;2023-05-06T12:52:27;24.70;33.90
21171;DHT22;10743;52.160;20.910;2023-05-06T12:54:56;24.70;34.00
21171;DHT22;10743;52.160;20.910;2023-05-06T12:57:23;24.70;34.10
21171;DHT22;10743;52.160;20.910;2023-05-06T12:59:51;24.60;34.90
21171;DHT22;10743;52.160;20.910;2023-05-06T13:02:18;24.70;34.60
21171;DHT22;10743;52.160;20.910;2023-05-06T13:04:45;24.70;34.70
21171;DHT22;10743;52.160;20.910;2023-05-06T13:07:12;24.70;34.50
21171;DHT22;10743;52.160;20.910;2023-05-06T13:09:40;24.60;34.40
21171;DHT22;10743;52.160;20.910;2023-05-06T13:12:06;24.60;34.90
21171;DHT22;10743;52.160;20.910;2023-05-06T13:14:34;24.60;34.70
21171;DHT22;10743;52.160;20.910;2023-05-06T13:17:05;24.60;34.60
21171;DHT22;10743;52.160;20.910;2023-05-06T13:19:33;24.60;34.60
21171;DHT22;10743;52.160;20.910;2023-05-06T13:22:00;24.60;34.80
21171;DHT22;10743;52.160;20.910;2023-05-06T13:24:28;24.60;34.80
21171;DHT22;10743;52.160;20.910;2023-05-06T13:26:55;24.60;34.80
21171;DHT22;10743;52.160;20.910;2023-05-06T13:29:23;24.60;34.80
21171;DHT22;10743;52.160;20.910;2023-05-06T13:31:51;24.50;34.80
21171;DHT22;10743;52.160;20.910;2023-05-06T13:34:18;24.40;34.90
21171;DHT22;10743;52.160;20.910;2023-05-06T13:36:45;24.40;35.00
21171;DHT22;10743;52.160;20.910;2023-05-06T13:39:14;24.30;35.10
21171;DHT22;10743;52.160;20.910;2023-05-06T13:41:45;24.30;35.30
21171;DHT22;10743;52.160;20.910;2023-05-06T13:44:13;24.10;35.30
21171;DHT22;10743;52.160;20.910;2023-05-06T13:46:40;24.00;35.50
21171;DHT22;10743;52.160;20.910;2023-05-06T13:49:12;23.90;35.70
21171;DHT22;10743;52.160;20.910;2023-05-06T13:51:39;23.90;35.90
21171;DHT22;10743;52.160;20.910;2023-05-06T13:54:06;23.70;36.00
21171;DHT22;10743;52.160;20.910;2023-05-06T13:56:34;23.70;36.20
21171;DHT22;10743;52.160;20.910;2023-05-06T13:59:00;23.70;36.40
21171;DHT22;10743;52.160;20.910;2023-05-06T14:01:27;23.60;36.60
21171;DHT22;10743;52.160;20.910;2023-05-06T14:03:54;23.60;36.50
21171;DHT22;10743;52.160;20.910;2023-05-06T14:06:21;23.50;36.50
21171;DHT22;10743;52.160;20.910;2023-05-06T14:08:48;23.50;36.50
21171;DHT22;10743;52.160;20.910;2023-05-06T14:11:15;23.40;36.70
21171;DHT22;10743;52.160;20.910;2023-05-06T14:13:42;23.40;37.10
21171;DHT22;10743;52.160;20.910;2023-05-06T14:16:09;23.40;37.10
21171;DHT22;10743;52.160;20.910;2023-05-06T14:18:36;23.40;37.10
21171;DHT22;10743;52.160;20.910;2023-05-06T14:21:03;23.40;37.40
21171;DHT22;10743;52.160;20.910;2023-05-06T14:23:30;23.40;37.50
21171;DHT22;10743;52.160;20.910;2023-05-06T14:25:58;23.40;37.60
21171;DHT22;10743;52.160;20.910;2023-05-06T14:28:25;23.30;37.30
21171;DHT22;10743;52.160;20.910;2023-05-06T14:30:52;23.30;37.30
21171;DHT22;10743;52.160;20.910;2023-05-06T14:33:19;23.40;37.40
21171;DHT22;10743;52.160;20.910;2023-05-06T14:35:48;23.40;37.60
21171;DHT22;10743;52.160;20.910;2023-05-06T14:38:18;23.30;37.60
21171;DHT22;10743;52.160;20.910;2023-05-06T14:40:45;23.30;37.80
21171;DHT22;10743;52.160;20.910;2023-05-06T14:43:12;23.30;37.80
21171;DHT22;10743;52.160;20.910;2023-05-06T14:45:39;23.30;37.70
21171;DHT22;10743;52.160;20.910;2023-05-06T14:48:06;23.30;38.10
21171;DHT22;10743;52.160;20.910;2023-05-06T14:50:33;23.30;38.30
21171;DHT22;10743;52.160;20.910;2023-05-06T14:53:01;23.30;38.50
21171;DHT22;10743;52.160;20.910;2023-05-06T14:55:29;23.30;38.80
21171;DHT22;10743;52.160;20.910;2023-05-06T14:57:56;23.30;38.40
21171;DHT22;10743;52.160;20.910;2023-05-06T15:00:24;23.30;38.60
21171;DHT22;10743;52.160;20.910;2023-05-06T15:02:51;23.30;38.70
21171;DHT22;10743;52.160;20.910;2023-05-06T15:05:18;23.30;38.90
21171;DHT22;10743;52.160;20.910;2023-05-06T15:07:45;23.30;38.90
21171;DHT22;10743;52.160;20.910;2023-05-06T15:10:12;23.30;38.90
21171;DHT22;10743;52.160;20.910;2023-05-06T15:12:39;23.30;39.00
21171;DHT22;10743;52.160;20.910;2023-05-06T15:15:06;23.30;39.20
21171;DHT22;10743;52.160;20.910;2023-05-06T15:17:34;23.20;39.30
21171;DHT22;10743;52.160;20.910;2023-05-06T15:20:02;23.20;39.30
21171;DHT22;10743;52.160;20.910;2023-05-06T15:22:30;23.20;39.50
21171;DHT22;10743;52.160;20.910;2023-05-06T15:24:57;23.20;39.60
21171;DHT22;10743;52.160;20.910;2023-05-06T15:27:24;23.10;39.70
21171;DHT22;10743;52.160;20.910;2023-05-06T15:29:51;23.10;39.70
21171;DHT22;10743;52.160;20.910;2023-05-06T15:32:18;23.10;39.60
21171;DHT22;10743;52.160;20.910;2023-05-06T15:34:45;23.10;39.40
21171;DHT22;10743;52.160;20.910;2023-05-06T15:37:12;23.10;39.20